createdAt,value
2022-10-13T00:00:25.707Z,99585.66
2022-10-13T00:02:52.246Z,99578.03
2022-10-13T00:05:18.790Z,99576.91
2022-10-13T00:07:45.423Z,99568.16
2022-10-13T00:10:13.330Z,99565.75
2022-10-13T00:12:40.032Z,99561.44
2022-10-13T00:15:08.517Z,99563.66
2022-10-13T00:17:35.473Z,99563.94
2022-10-13T00:20:01.986Z,99555.31
2022-10-13T00:22:28.555Z,99556.22
2022-10-13T00:24:55.064Z,99553.31
2022-10-13T00:27:23.169Z,99550.22
2022-10-13T00:29:49.806Z,99550.00
2022-10-13T00:32:16.724Z,99553.63
2022-10-13T00:34:43.449Z,99556.72
2022-10-13T00:37:09.991Z,99548.69
2022-10-13T00:39:37.243Z,99567.16
2022-10-13T00:42:04.722Z,99557.41
2022-10-13T00:45:07.898Z,99547.38
2022-10-13T00:47:40.516Z,99558.75
2022-10-13T00:50:10.600Z,99550.59
2022-10-13T00:52:39.118Z,99543.88
2022-10-13T00:55:07.912Z,99547.09
2022-10-13T00:57:36.192Z,99550.91
2022-10-13T01:00:04.183Z,99560.34
2022-10-13T01:02:34.917Z,99554.94
2022-10-13T01:05:04.164Z,99544.66
2022-10-13T01:07:31.407Z,99542.78
2022-10-13T01:09:58.863Z,99545.59
2022-10-13T01:12:38.143Z,99548.88
2022-10-13T01:15:11.365Z,99544.09
2022-10-13T01:17:48.551Z,99545.78
2022-10-13T01:20:45.081Z,99546.66
2022-10-13T01:23:30.425Z,99540.47
2022-10-13T01:26:24.399Z,99542.06
2022-10-13T01:29:16.300Z,99540.34
2022-10-13T01:31:51.574Z,99535.97
2022-10-13T01:34:23.222Z,99524.50
2022-10-13T01:36:58.431Z,99533.94
2022-10-13T01:39:31.396Z,99524.41
2022-10-13T01:42:04.188Z,99522.97
2022-10-13T01:44:36.755Z,99519.16
2022-10-13T01:47:07.364Z,99518.66
2022-10-13T01:49:36.043Z,99522.97
2022-10-13T01:52:07.255Z,99520.09
2022-10-13T01:54:33.910Z,99517.16
2022-10-13T01:57:00.440Z,99515.38
2022-10-13T01:59:29.565Z,99519.19
2022-10-13T02:02:09.517Z,99510.34
2022-10-13T02:04:45.622Z,99511.25
2022-10-13T02:07:19.757Z,99521.34
2022-10-13T02:09:55.056Z,99512.03
2022-10-13T02:12:27.452Z,99509.13
2022-10-13T02:14:55.516Z,99506.50
2022-10-13T02:17:23.907Z,99509.31
2022-10-13T02:19:50.450Z,99505.38
2022-10-13T02:22:18.303Z,99504.66
2022-10-13T02:24:45.064Z,99510.59
2022-10-13T02:27:11.963Z,99503.97
2022-10-13T02:29:50.087Z,99503.03
2022-10-13T02:32:16.892Z,99500.72
2022-10-13T02:34:45.118Z,99503.28
2022-10-13T02:37:11.651Z,99499.94
2022-10-13T02:39:38.215Z,99493.59
2022-10-13T02:42:05.078Z,99496.16
2022-10-13T02:44:31.680Z,99485.22
2022-10-13T02:46:58.697Z,99488.53
2022-10-13T02:49:25.266Z,99488.41
2022-10-13T02:51:53.340Z,99486.88
2022-10-13T02:54:20.225Z,99483.47
2022-10-13T02:56:46.770Z,99478.38
2022-10-13T02:59:13.388Z,99479.00
2022-10-13T03:01:39.892Z,99469.84
2022-10-13T03:04:06.670Z,99476.34
2022-10-13T03:06:33.582Z,99477.75
2022-10-13T03:09:02.544Z,99476.72
2022-10-13T03:11:29.076Z,99478.97
2022-10-13T03:13:55.621Z,99471.97
2022-10-13T03:16:22.434Z,99479.50
2022-10-13T03:18:49.026Z,99472.50
2022-10-13T03:21:15.583Z,99470.88
2022-10-13T03:23:42.094Z,99471.97
2022-10-13T03:26:10.131Z,99471.69
2022-10-13T03:28:36.798Z,99470.41
2022-10-13T03:31:04.812Z,99469.28
2022-10-13T03:33:31.488Z,99467.69
2022-10-13T03:35:59.532Z,99469.78
2022-10-13T03:38:26.295Z,99474.69
2022-10-13T03:40:52.834Z,99476.00
2022-10-13T03:43:20.699Z,99482.00
2022-10-13T03:45:54.845Z,99474.22
2022-10-13T03:48:21.353Z,99482.94
2022-10-13T03:50:47.892Z,99471.59
2022-10-13T03:53:14.524Z,99475.97
2022-10-13T03:55:41.026Z,99479.75
2022-10-13T03:58:07.882Z,99482.19
2022-10-13T04:00:36.582Z,99484.59
2022-10-13T04:03:03.088Z,99479.19
2022-10-13T04:05:29.616Z,99477.53
2022-10-13T04:07:56.120Z,99471.00
2022-10-13T04:10:22.753Z,99475.84
2022-10-13T04:12:49.285Z,99471.47
2022-10-13T04:15:15.997Z,99480.59
2022-10-13T04:17:43.880Z,99472.47
2022-10-13T04:20:10.950Z,99480.59
2022-10-13T04:22:37.509Z,99484.91
2022-10-13T04:25:05.096Z,99484.31
2022-10-13T04:27:31.624Z,99488.09
2022-10-13T04:29:58.515Z,99486.94
2022-10-13T04:32:25.036Z,99488.63
2022-10-13T04:34:52.930Z,99483.00
2022-10-13T04:37:19.426Z,99486.81
2022-10-13T04:39:46.089Z,99485.81
2022-10-13T04:42:12.588Z,99491.78
2022-10-13T04:44:39.110Z,99489.34
2022-10-13T04:47:05.624Z,99480.97
2022-10-13T04:49:32.138Z,99484.19
2022-10-13T04:52:00.047Z,99478.19
2022-10-13T04:54:26.720Z,99480.59
2022-10-13T04:56:53.280Z,99472.09
2022-10-13T04:59:19.944Z,99483.06
2022-10-13T05:01:46.453Z,99476.00
2022-10-13T05:04:13.322Z,99466.72
2022-10-13T05:07:05.216Z,99464.44
2022-10-13T05:09:30.040Z,99474.25
2022-10-13T05:11:56.571Z,99473.72
2022-10-13T05:14:23.481Z,99473.09
2022-10-13T05:16:50.069Z,99465.50
2022-10-13T05:19:16.592Z,99472.00
2022-10-13T05:21:43.212Z,99468.22
2022-10-13T05:24:09.716Z,99470.53
2022-10-13T05:26:37.658Z,99470.66
2022-10-13T05:29:04.300Z,99465.84
2022-10-13T05:31:32.360Z,99465.19
2022-10-13T05:33:59.426Z,99461.31
2022-10-13T05:36:27.469Z,99458.22
2022-10-13T05:38:56.371Z,99459.41
2022-10-13T05:41:24.127Z,99461.91
2022-10-13T05:43:54.844Z,99455.78
2022-10-13T05:46:21.358Z,99451.47
2022-10-13T05:48:47.863Z,99456.38
2022-10-13T05:51:17.223Z,99459.88
2022-10-13T05:53:51.110Z,99452.06
2022-10-13T05:56:25.950Z,99443.94
2022-10-13T05:58:58.374Z,99445.25
2022-10-13T06:01:28.068Z,99437.41
2022-10-13T06:03:59.059Z,99426.59
2022-10-13T06:06:29.131Z,99423.28
2022-10-13T06:08:58.401Z,99409.16
2022-10-13T06:11:24.938Z,99408.25
2022-10-13T06:13:51.460Z,99414.19
2022-10-13T06:16:19.309Z,99409.25
2022-10-13T06:18:45.941Z,99400.53
2022-10-13T06:21:12.612Z,99395.13
2022-10-13T06:23:39.192Z,99396.44
2022-10-13T06:26:07.238Z,99395.53
2022-10-13T06:28:33.809Z,99400.34
2022-10-13T06:31:00.448Z,99398.66
2022-10-13T06:33:28.326Z,99411.78
2022-10-13T06:35:54.827Z,99404.34
2022-10-13T06:38:21.370Z,99410.97
2022-10-13T06:40:48.074Z,99412.00
2022-10-13T06:43:14.715Z,99421.59
2022-10-13T06:45:41.281Z,99429.66
2022-10-13T06:48:07.948Z,99425.41
2022-10-13T06:50:40.687Z,99412.56
2022-10-13T06:53:09.278Z,99424.59
2022-10-13T06:55:35.898Z,99427.50
2022-10-13T06:58:02.454Z,99441.66
2022-10-13T07:00:29.082Z,99433.25
2022-10-13T07:02:55.602Z,99437.13
2022-10-13T07:05:22.254Z,99439.59
2022-10-13T07:07:51.785Z,99439.66
2022-10-13T07:10:18.527Z,99439.41
2022-10-13T07:12:45.163Z,99435.81
2022-10-13T07:15:11.719Z,99439.69
2022-10-13T07:17:38.260Z,99447.88
2022-10-13T07:20:07.381Z,99443.13
2022-10-13T07:22:34.242Z,99443.50
2022-10-13T07:25:02.117Z,99442.19
2022-10-13T07:27:28.792Z,99444.28
2022-10-13T07:29:55.482Z,99439.84
2022-10-13T07:32:22.002Z,99434.91
2022-10-13T07:34:52.169Z,99431.78
2022-10-13T07:37:19.026Z,99438.66
2022-10-13T07:39:45.712Z,99439.31
2022-10-13T07:42:13.603Z,99440.00
2022-10-13T07:44:40.245Z,99434.78
2022-10-13T07:47:06.746Z,99443.41
2022-10-13T07:49:33.290Z,99441.38
2022-10-13T07:52:00.191Z,99436.91
2022-10-13T07:54:27.817Z,99437.88
2022-10-13T07:56:56.022Z,99437.41
2022-10-13T07:59:24.267Z,99429.28
2022-10-13T08:01:51.400Z,99425.13
2022-10-13T08:04:18.210Z,99426.91
2022-10-13T08:06:44.906Z,99424.47
2022-10-13T08:09:11.553Z,99422.69
2022-10-13T08:11:38.647Z,99430.69
2022-10-13T08:14:05.199Z,99434.22
2022-10-13T08:16:33.181Z,99432.13
2022-10-13T08:18:59.723Z,99439.34
2022-10-13T08:21:53.389Z,99435.81
2022-10-13T08:24:16.424Z,99431.47
2022-10-13T08:26:44.324Z,99422.78
2022-10-13T08:29:27.021Z,99434.50
2022-10-13T08:31:55.769Z,99425.84
2022-10-13T08:34:23.327Z,99426.28
2022-10-13T08:36:49.944Z,99424.97
2022-10-13T08:39:16.437Z,99424.19
2022-10-13T08:41:44.105Z,99424.00
2022-10-13T08:47:14.857Z,99420.31
2022-10-13T08:49:43.097Z,99421.06
2022-10-13T08:52:16.418Z,99411.09
2022-10-13T08:54:43.130Z,99411.00
2022-10-13T08:57:10.805Z,99403.72
2022-10-13T08:59:37.377Z,99402.22
2022-10-13T09:02:11.744Z,99420.81
2022-10-13T09:04:41.266Z,99432.22
2022-10-13T09:07:14.377Z,99425.34
2022-10-13T09:09:41.120Z,99421.69
2022-10-13T09:12:10.057Z,99420.50
2022-10-13T09:14:39.855Z,99405.63
2022-10-13T09:17:17.274Z,99407.75
2022-10-13T09:19:44.962Z,99408.22
2022-10-13T09:22:21.810Z,99408.72
2022-10-13T09:25:04.396Z,99402.59
2022-10-13T09:27:42.408Z,99403.75
2022-10-13T09:30:25.608Z,99416.22
2022-10-13T09:33:00.920Z,99412.78
2022-10-13T09:35:27.434Z,99418.81
2022-10-13T09:38:03.005Z,99417.38
2022-10-13T09:40:29.701Z,99412.16
2022-10-13T09:42:57.013Z,99417.09
2022-10-13T09:45:25.408Z,99411.56
2022-10-13T09:47:55.604Z,99419.28
2022-10-13T09:50:25.036Z,99410.22
2022-10-13T09:52:52.143Z,99414.13
2022-10-13T09:55:32.327Z,99408.94
2022-10-13T09:58:05.706Z,99413.34
2022-10-13T10:00:32.983Z,99402.31
2022-10-13T10:03:05.463Z,99414.22
2022-10-13T10:05:41.977Z,99408.34
2022-10-13T10:08:15.700Z,99397.16
2022-10-13T10:10:42.506Z,99405.00
2022-10-13T10:13:11.368Z,99399.78
2022-10-13T10:15:47.605Z,99394.38
2022-10-13T10:18:21.089Z,99394.91
2022-10-13T10:20:59.833Z,99382.25
2022-10-13T10:23:37.862Z,99376.09
2022-10-13T10:26:09.605Z,99378.88
2022-10-13T10:29:04.856Z,99379.47
2022-10-13T10:31:44.129Z,99381.72
2022-10-13T10:34:30.854Z,99379.31
2022-10-13T10:37:10.934Z,99370.69
2022-10-13T10:39:46.489Z,99376.41
2022-10-13T10:42:37.755Z,99368.53
2022-10-13T10:45:16.054Z,99370.41
2022-10-13T10:47:45.915Z,99372.22
2022-10-13T10:50:17.394Z,99368.75
2022-10-13T10:52:53.738Z,99358.28
2022-10-13T10:55:27.264Z,99353.81
2022-10-13T10:58:03.712Z,99346.03
2022-10-13T11:00:39.076Z,99343.84
2022-10-13T11:03:13.364Z,99343.78
2022-10-13T11:06:01.780Z,99333.66
2022-10-13T11:08:30.632Z,99348.41
2022-10-13T11:11:34.823Z,99335.25
2022-10-13T11:14:24.904Z,99321.22
2022-10-13T11:17:19.669Z,99317.72
2022-10-13T11:19:47.731Z,99323.78
2022-10-13T11:22:18.292Z,99319.56
2022-10-13T11:24:48.739Z,99320.47
2022-10-13T11:27:38.523Z,99325.97
2022-10-13T11:30:26.612Z,99326.97
2022-10-13T11:32:53.258Z,99330.94
2022-10-13T11:35:23.026Z,99321.50
2022-10-13T11:38:08.420Z,99313.63
2022-10-13T11:40:44.797Z,99313.97
2022-10-13T11:43:32.053Z,99308.44
2022-10-13T11:46:24.314Z,99305.38
2022-10-13T11:49:05.204Z,99299.38
2022-10-13T11:51:48.543Z,99301.38
2022-10-13T11:54:25.494Z,99300.03
2022-10-13T11:56:53.967Z,99287.84
2022-10-13T11:59:23.945Z,99281.97
2022-10-13T12:01:53.941Z,99275.66
2022-10-13T12:04:22.857Z,99279.56
2022-10-13T12:06:55.667Z,99282.97
2022-10-13T12:09:24.207Z,99273.78
2022-10-13T12:11:57.291Z,99280.56
2022-10-13T12:14:29.595Z,99274.63
2022-10-13T12:16:58.172Z,99270.78
2022-10-13T12:19:27.202Z,99278.78
2022-10-13T12:21:55.756Z,99267.75
2022-10-13T12:24:25.064Z,99267.13
2022-10-13T12:26:51.893Z,99267.00
2022-10-13T12:29:21.245Z,99258.78
2022-10-13T12:31:50.705Z,99265.34
2022-10-13T12:34:20.679Z,99271.44
2022-10-13T12:36:54.398Z,99261.19
2022-10-13T12:39:21.415Z,99268.09
2022-10-13T12:41:49.591Z,99261.41
2022-10-13T12:44:19.949Z,99266.97
2022-10-13T12:46:48.783Z,99263.50
2022-10-13T12:49:17.129Z,99267.63
2022-10-13T12:51:46.958Z,99259.34
2022-10-13T12:54:19.761Z,99265.84
2022-10-13T12:56:46.956Z,99270.53
2022-10-13T12:59:17.760Z,99262.88
2022-10-13T13:01:45.586Z,99260.13
2022-10-13T13:04:28.109Z,99256.00
2022-10-13T13:06:56.713Z,99261.41
2022-10-13T13:09:28.276Z,99261.50
2022-10-13T13:12:21.261Z,99258.56
2022-10-13T13:14:50.612Z,99250.06
2022-10-13T13:17:57.404Z,99258.13
2022-10-13T13:20:25.686Z,99263.53
2022-10-13T13:22:52.243Z,99259.91
2022-10-13T13:25:18.899Z,99250.44
2022-10-13T13:27:45.406Z,99257.25
2022-10-13T13:30:15.408Z,99263.84
2022-10-13T13:32:41.930Z,99254.72
2022-10-13T13:35:09.598Z,99264.31
2022-10-13T13:37:38.946Z,99254.28
2022-10-13T13:40:07.254Z,99246.75
2022-10-13T13:42:33.827Z,99243.09
2022-10-13T13:45:00.307Z,99249.41
2022-10-13T13:47:28.697Z,99242.09
2022-10-13T13:49:56.684Z,99236.91
2022-10-13T13:52:24.221Z,99236.91
2022-10-13T13:54:51.451Z,99235.28
2022-10-13T13:57:19.078Z,99230.97
2022-10-13T13:59:46.004Z,99233.78
2022-10-13T14:02:14.499Z,99233.84
2022-10-13T14:04:42.970Z,99230.38
2022-10-13T14:07:09.552Z,99234.88
2022-10-13T14:09:36.213Z,99232.75
2022-10-13T14:12:02.911Z,99235.66
2022-10-13T14:14:30.453Z,99236.84
2022-10-13T14:16:56.960Z,99228.97
2022-10-13T14:19:23.568Z,99230.38
2022-10-13T14:21:51.458Z,99235.50
2022-10-13T14:24:18.234Z,99228.09
2022-10-13T14:26:44.773Z,99232.97
2022-10-13T14:29:11.391Z,99229.28
2022-10-13T14:31:37.992Z,99223.09
2022-10-13T14:34:04.487Z,99222.53
2022-10-13T14:36:31.172Z,99217.78
2022-10-13T14:38:59.171Z,99218.22
2022-10-13T14:41:25.839Z,99217.50
2022-10-13T14:43:52.868Z,99213.63
2022-10-13T14:46:19.363Z,99213.97
2022-10-13T14:48:45.899Z,99199.41
2022-10-13T14:51:12.764Z,99200.78
2022-10-13T14:53:41.038Z,99207.88
2022-10-13T14:56:17.835Z,99207.53
2022-10-13T14:58:44.645Z,99207.06
2022-10-13T15:01:11.173Z,99208.56
2022-10-13T15:03:37.693Z,99203.94
2022-10-13T15:06:04.491Z,99204.28
2022-10-13T15:08:31.036Z,99195.97
2022-10-13T15:11:00.772Z,99205.69
2022-10-13T15:13:29.184Z,99205.13
2022-10-13T15:15:57.796Z,99202.84
2022-10-13T15:18:28.972Z,99204.59
2022-10-13T15:20:56.077Z,99210.06
2022-10-13T15:23:23.071Z,99201.06
2022-10-13T15:25:50.796Z,99203.34
2022-10-13T15:28:17.419Z,99200.59
2022-10-13T15:30:45.602Z,99206.75
2022-10-13T15:33:12.250Z,99201.22
2022-10-13T15:35:38.897Z,99204.28
2022-10-13T15:38:05.475Z,99196.06
2022-10-13T15:40:32.217Z,99193.69
2022-10-13T15:42:58.769Z,99197.91
2022-10-13T15:45:25.701Z,99194.75
2022-10-13T15:47:53.623Z,99187.22
2022-10-13T15:50:20.131Z,99186.66
2022-10-13T15:52:46.712Z,99192.72
2022-10-13T15:55:13.256Z,99193.41
2022-10-13T15:57:39.774Z,99187.94
2022-10-13T16:00:08.260Z,99183.97
2022-10-13T16:02:34.815Z,99179.84
2022-10-13T16:05:02.731Z,99185.66
2022-10-13T16:07:29.262Z,99181.13
2022-10-13T16:09:55.888Z,99187.72
2022-10-13T16:12:22.597Z,99184.31
2022-10-13T16:14:49.380Z,99179.88
2022-10-13T16:17:15.870Z,99180.91
2022-10-13T16:19:42.387Z,99186.16
2022-10-13T16:22:10.275Z,99189.44
2022-10-13T16:24:37.063Z,99190.03
2022-10-13T16:27:03.701Z,99183.63
2022-10-13T16:29:30.417Z,99193.53
2022-10-13T16:31:57.061Z,99191.16
2022-10-13T16:34:23.635Z,99189.13
2022-10-13T16:36:50.171Z,99187.63
2022-10-13T16:39:18.199Z,99191.72
2022-10-13T16:41:44.760Z,99187.50
2022-10-13T16:44:11.363Z,99196.03
2022-10-13T16:46:37.910Z,99190.34
2022-10-13T16:49:04.452Z,99187.59
2022-10-13T16:51:31.075Z,99181.69
2022-10-13T16:54:02.943Z,99187.00
2022-10-13T16:56:32.709Z,99184.16
2022-10-13T16:59:01.330Z,99184.50
2022-10-13T17:01:28.550Z,99193.03
2022-10-13T17:03:55.331Z,99190.16
2022-10-13T17:06:24.055Z,99183.81
2022-10-13T17:08:50.626Z,99180.94
2022-10-13T17:11:19.383Z,99190.59
2022-10-13T17:13:47.767Z,99188.88
2022-10-13T17:16:14.566Z,99196.13
2022-10-13T17:18:41.201Z,99197.25
2022-10-13T17:21:09.960Z,99200.97
2022-10-13T17:23:37.389Z,99192.31
2022-10-13T17:26:06.336Z,99189.50
2022-10-13T17:28:33.076Z,99190.16
2022-10-13T17:31:03.056Z,99191.28
2022-10-13T17:33:31.956Z,99194.34
2022-10-13T17:36:00.141Z,99203.97
2022-10-13T17:38:26.684Z,99208.31
2022-10-13T17:40:58.800Z,99194.88
2022-10-13T17:43:26.363Z,99208.84
2022-10-13T17:45:52.957Z,99197.47
2022-10-13T17:48:23.088Z,99201.69
2022-10-13T17:50:49.822Z,99197.34
2022-10-13T17:53:16.332Z,99196.56
2022-10-13T17:55:43.167Z,99201.22
2022-10-13T17:58:09.717Z,99193.84
2022-10-13T18:01:00.649Z,99198.16
2022-10-13T18:03:25.142Z,99187.91
2022-10-13T18:05:51.944Z,99197.22
2022-10-13T18:08:18.657Z,99196.41
2022-10-13T18:11:07.073Z,99195.16
2022-10-13T18:13:32.016Z,99190.81
2022-10-13T18:16:02.793Z,99188.09
2022-10-13T18:18:30.907Z,99189.59
2022-10-13T18:20:57.449Z,99180.59
2022-10-13T18:23:24.094Z,99181.25
2022-10-13T18:25:50.659Z,99178.06
2022-10-13T18:28:17.250Z,99179.53
2022-10-13T18:30:43.905Z,99183.88
2022-10-13T18:33:10.437Z,99179.88
2022-10-13T18:35:38.441Z,99187.59
2022-10-13T18:38:04.933Z,99185.66
2022-10-13T18:40:31.558Z,99187.59
2022-10-13T18:42:58.065Z,99187.09
2022-10-13T18:45:24.574Z,99184.38
2022-10-13T18:47:51.175Z,99184.72
2022-10-13T18:50:17.772Z,99186.19
2022-10-13T18:52:46.262Z,99186.53
2022-10-13T18:55:12.770Z,99179.78
2022-10-13T18:57:39.307Z,99183.31
2022-10-13T19:00:10.137Z,99188.63
2022-10-13T19:02:36.637Z,99173.88
2022-10-13T19:05:03.242Z,99176.59
2022-10-13T19:07:29.767Z,99175.16
2022-10-13T19:09:57.616Z,99174.03
2022-10-13T19:12:24.184Z,99171.28
2022-10-13T19:14:50.718Z,99165.50
2022-10-13T19:17:17.227Z,99178.47
2022-10-13T19:19:43.781Z,99171.22
2022-10-13T19:22:10.406Z,99170.91
2022-10-13T19:24:36.918Z,99166.25
2022-10-13T19:27:04.874Z,99159.53
2022-10-13T19:29:31.426Z,99162.56
2022-10-13T19:31:57.991Z,99162.91
2022-10-13T19:34:24.602Z,99154.94
2022-10-13T19:36:51.145Z,99147.41
2022-10-13T19:39:20.617Z,99154.00
2022-10-13T19:41:48.297Z,99154.34
2022-10-13T19:44:18.189Z,99156.13
2022-10-13T19:46:46.630Z,99152.94
2022-10-13T19:49:16.018Z,99159.88
2022-10-13T19:51:42.560Z,99157.47
2022-10-13T19:54:10.153Z,99156.66
2022-10-13T19:56:36.878Z,99160.06
2022-10-13T19:59:03.919Z,99160.38
2022-10-13T20:01:32.021Z,99163.56
2022-10-13T20:03:58.700Z,99150.59
2022-10-13T20:06:25.224Z,99158.34
2022-10-13T20:08:51.737Z,99165.72
2022-10-13T20:11:23.771Z,99164.09
2022-10-13T20:13:52.258Z,99159.91
2022-10-13T20:16:22.202Z,99169.22
2022-10-13T20:18:53.200Z,99165.22
2022-10-13T20:21:19.957Z,99160.91
2022-10-13T20:23:46.620Z,99166.69
2022-10-13T20:26:13.509Z,99167.69
2022-10-13T20:28:43.004Z,99163.03
2022-10-13T20:31:10.273Z,99163.47
2022-10-13T20:33:36.797Z,99161.22
2022-10-13T20:36:06.976Z,99167.31
2022-10-13T20:38:35.013Z,99163.56
2022-10-13T20:41:05.795Z,99164.53
2022-10-13T20:43:32.584Z,99164.16
2022-10-13T20:46:00.506Z,99165.25
2022-10-13T20:48:36.757Z,99163.78
2022-10-13T20:51:19.291Z,99163.78
2022-10-13T20:53:46.834Z,99162.31
2022-10-13T20:56:15.080Z,99155.41
2022-10-13T20:58:42.087Z,99166.63
2022-10-13T21:01:08.953Z,99158.47
2022-10-13T21:03:35.688Z,99159.59
2022-10-13T21:06:03.961Z,99155.59
2022-10-13T21:08:31.906Z,99147.88
2022-10-13T21:11:03.175Z,99151.75
2022-10-13T21:13:29.773Z,99157.88
2022-10-13T21:15:56.302Z,99153.88
2022-10-13T21:18:22.855Z,99153.56
2022-10-13T21:20:49.380Z,99153.19
2022-10-13T21:23:15.930Z,99156.06
2022-10-13T21:25:43.794Z,99151.88
2022-10-13T21:28:10.322Z,99151.09
2022-10-13T21:30:36.837Z,99154.72
2022-10-13T21:33:03.417Z,99154.88
2022-10-13T21:35:29.924Z,99154.53
2022-10-13T21:37:56.449Z,99161.91
2022-10-13T21:40:23.101Z,99151.00
2022-10-13T21:42:50.980Z,99155.34
2022-10-13T21:45:17.676Z,99148.44
2022-10-13T21:47:44.334Z,99150.28
2022-10-13T21:50:10.976Z,99143.81
2022-10-13T21:52:37.563Z,99155.03
2022-10-13T21:55:05.083Z,99148.34
2022-10-13T21:57:31.607Z,99140.50
2022-10-13T21:59:59.568Z,99138.25
2022-10-13T22:02:26.099Z,99135.03
2022-10-13T22:04:52.635Z,99134.09
2022-10-13T22:07:19.408Z,99129.66
2022-10-13T22:09:46.255Z,99129.47
2022-10-13T22:12:12.743Z,99128.97
2022-10-13T22:14:39.261Z,99126.06
2022-10-13T22:17:07.127Z,99125.75
2022-10-13T22:19:33.743Z,99123.34
2022-10-13T22:22:00.263Z,99125.28
2022-10-13T22:24:26.793Z,99118.22
2022-10-13T22:26:53.309Z,99120.81
2022-10-13T22:29:21.587Z,99127.75
2022-10-13T22:31:48.912Z,99121.03
2022-10-13T22:34:17.480Z,99127.94
2022-10-13T22:36:45.253Z,99123.59
2022-10-13T22:39:12.809Z,99123.16
2022-10-13T22:41:39.322Z,99112.59
2022-10-13T22:44:05.869Z,99118.06
2022-10-13T22:46:34.407Z,99117.03
2022-10-13T22:49:01.445Z,99121.34
2022-10-13T22:51:31.363Z,99119.44
2022-10-13T22:53:58.515Z,99118.44
2022-10-13T22:56:27.114Z,99118.88
2022-10-13T22:58:56.434Z,99116.94
2022-10-13T23:01:24.127Z,99117.75
2022-10-13T23:03:52.710Z,99120.47
2022-10-13T23:06:21.889Z,99117.09
2022-10-13T23:08:49.924Z,99123.00
2022-10-13T23:11:17.147Z,99122.66
2022-10-13T23:13:43.910Z,99118.47
2022-10-13T23:16:12.218Z,99109.63
2022-10-13T23:18:39.133Z,99108.50
2022-10-13T23:21:05.928Z,99116.78
2022-10-13T23:23:32.571Z,99115.53
2022-10-13T23:26:03.479Z,99107.00
2022-10-13T23:28:30.766Z,99115.97
2022-10-13T23:30:59.531Z,99108.97
2022-10-13T23:33:26.053Z,99119.19
2022-10-13T23:35:55.801Z,99115.66
2022-10-13T23:38:22.787Z,99102.34
2022-10-13T23:40:49.638Z,99113.41
2022-10-13T23:43:17.729Z,99107.94
2022-10-13T23:45:44.523Z,99111.13
2022-10-13T23:48:11.161Z,99119.31
2022-10-13T23:50:37.696Z,99115.31
2022-10-13T23:53:04.432Z,99117.59
2022-10-13T23:55:31.051Z,99116.44
2022-10-13T23:57:57.537Z,99108.59
